sensor_id;sensor_type;location;lat;lon;timestamp;temperature;humidity
5901;DHT22;2976;49.764;9.796;2023-06-22T00:01:56;18.50;99.90
5901;DHT22;2976;49.764;9.796;2023-06-22T00:04:22;18.60;99.90
5901;DHT22;2976;49.764;9.796;2023-06-22T00:06:47;18.50;99.90
5901;DHT22;2976;49.764;9.796;2023-06-22T00:09:13;18.50;99.90
5901;DHT22;2976;49.764;9.796;2023-06-22T00:11:39;18.50;99.90
5901;DHT22;2976;49.764;9.796;2023-06-22T00:14:05;18.60;99.90
5901;DHT22;2976;49.764;9.796;2023-06-22T00:16:32;18.60;99.90
5901;DHT22;2976;49.764;9.796;2023-06-22T00:18:58;18.50;99.90
5901;DHT22;2976;49.764;9.796;2023-06-22T00:21:26;18.50;99.90
5901;DHT22;2976;49.764;9.796;2023-06-22T00:23:52;18.40;99.90
5901;DHT22;2976;49.764;9.796;2023-06-22T00:26:17;18.40;99.90
5901;DHT22;2976;49.764;9.796;2023-06-22T00:28:43;18.30;99.90
5901;DHT22;2976;49.764;9.796;2023-06-22T00:31:09;18.30;99.90
5901;DHT22;2976;49.764;9.796;2023-06-22T00:33:34;18.30;99.90
5901;DHT22;2976;49.764;9.796;2023-06-22T00:36:00;18.30;99.90
5901;DHT22;2976;49.764;9.796;2023-06-22T00:38:25;18.30;99.90
5901;DHT22;2976;49.764;9.796;2023-06-22T00:40:51;18.30;99.90
5901;DHT22;2976;49.764;9.796;2023-06-22T00:43:17;18.20;99.90
5901;DHT22;2976;49.764;9.796;2023-06-22T00:45:42;18.20;99.90
5901;DHT22;2976;49.764;9.796;2023-06-22T00:48:08;18.20;99.90
5901;DHT22;2976;49.764;9.796;2023-06-22T00:50:34;18.20;99.90
5901;DHT22;2976;49.764;9.796;2023-06-22T00:53:06;18.30;99.90
5901;DHT22;2976;49.764;9.796;2023-06-22T00:55:35;18.40;99.90
5901;DHT22;2976;49.764;9.796;2023-06-22T00:58:03;18.40;99.90
5901;DHT22;2976;49.764;9.796;2023-06-22T01:00:31;18.40;99.90
5901;DHT22;2976;49.764;9.796;2023-06-22T01:02:58;18.30;99.90
5901;DHT22;2976;49.764;9.796;2023-06-22T01:05:23;18.20;99.90
5901;DHT22;2976;49.764;9.796;2023-06-22T01:08:23;18.10;99.90
5901;DHT22;2976;49.764;9.796;2023-06-22T01:10:58;18.10;99.90
5901;DHT22;2976;49.764;9.796;2023-06-22T01:13:45;18.10;99.90
5901;DHT22;2976;49.764;9.796;2023-06-22T01:16:16;18.10;99.90
5901;DHT22;2976;49.764;9.796;2023-06-22T01:18:44;18.00;99.90
5901;DHT22;2976;49.764;9.796;2023-06-22T01:21:16;17.90;99.90
5901;DHT22;2976;49.764;9.796;2023-06-22T01:24:08;17.80;99.90
5901;DHT22;2976;49.764;9.796;2023-06-22T01:29:17;17.80;99.90
5901;DHT22;2976;49.764;9.796;2023-06-22T01:31:44;17.80;99.90
5901;DHT22;2976;49.764;9.796;2023-06-22T01:34:11;17.80;99.90
5901;DHT22;2976;49.764;9.796;2023-06-22T01:36:38;17.90;99.90
5901;DHT22;2976;49.764;9.796;2023-06-22T01:39:05;18.00;99.90
5901;DHT22;2976;49.764;9.796;2023-06-22T01:41:34;18.00;99.90
5901;DHT22;2976;49.764;9.796;2023-06-22T01:44:01;18.00;99.90
5901;DHT22;2976;49.764;9.796;2023-06-22T01:46:28;18.00;99.90
5901;DHT22;2976;49.764;9.796;2023-06-22T01:48:55;18.00;99.90
5901;DHT22;2976;49.764;9.796;2023-06-22T01:51:21;17.90;99.90
5901;DHT22;2976;49.764;9.796;2023-06-22T01:53:46;18.00;99.90
5901;DHT22;2976;49.764;9.796;2023-06-22T01:56:13;17.90;99.90
5901;DHT22;2976;49.764;9.796;2023-06-22T02:01:48;18.30;99.90
5901;DHT22;2976;49.764;9.796;2023-06-22T02:04:21;18.40;99.90
5901;DHT22;2976;49.764;9.796;2023-06-22T02:06:51;18.50;99.90
5901;DHT22;2976;49.764;9.796;2023-06-22T02:09:20;18.50;99.90
5901;DHT22;2976;49.764;9.796;2023-06-22T02:11:48;18.50;99.90
5901;DHT22;2976;49.764;9.796;2023-06-22T02:14:17;18.50;99.90
5901;DHT22;2976;49.764;9.796;2023-06-22T02:16:43;18.50;99.90
5901;DHT22;2976;49.764;9.796;2023-06-22T02:19:09;18.50;99.90
5901;DHT22;2976;49.764;9.796;2023-06-22T02:21:35;18.50;99.90
5901;DHT22;2976;49.764;9.796;2023-06-22T02:24:00;18.50;99.90
5901;DHT22;2976;49.764;9.796;2023-06-22T02:26:26;18.60;99.90
5901;DHT22;2976;49.764;9.796;2023-06-22T02:28:52;18.50;99.90
5901;DHT22;2976;49.764;9.796;2023-06-22T02:31:18;18.50;99.90
5901;DHT22;2976;49.764;9.796;2023-06-22T02:33:44;18.40;99.90
5901;DHT22;2976;49.764;9.796;2023-06-22T02:36:10;18.40;99.90
5901;DHT22;2976;49.764;9.796;2023-06-22T02:38:38;18.30;99.90
5901;DHT22;2976;49.764;9.796;2023-06-22T02:41:05;18.30;99.90
5901;DHT22;2976;49.764;9.796;2023-06-22T02:43:32;18.40;99.90
5901;DHT22;2976;49.764;9.796;2023-06-22T02:45:57;18.40;99.90
5901;DHT22;2976;49.764;9.796;2023-06-22T02:48:23;18.40;99.90
5901;DHT22;2976;49.764;9.796;2023-06-22T02:50:48;18.40;99.90
5901;DHT22;2976;49.764;9.796;2023-06-22T02:53:14;18.40;99.90
5901;DHT22;2976;49.764;9.796;2023-06-22T02:55:39;18.40;99.90
5901;DHT22;2976;49.764;9.796;2023-06-22T02:58:05;18.30;99.90
5901;DHT22;2976;49.764;9.796;2023-06-22T03:00:32;18.30;99.90
5901;DHT22;2976;49.764;9.796;2023-06-22T03:02:58;18.30;99.90
5901;DHT22;2976;49.764;9.796;2023-06-22T03:05:24;18.30;99.90
5901;DHT22;2976;49.764;9.796;2023-06-22T03:07:50;18.30;99.90
5901;DHT22;2976;49.764;9.796;2023-06-22T03:10:16;18.30;99.90
5901;DHT22;2976;49.764;9.796;2023-06-22T03:12:42;18.30;99.90
5901;DHT22;2976;49.764;9.796;2023-06-22T03:15:10;18.40;99.90
5901;DHT22;2976;49.764;9.796;2023-06-22T03:17:36;18.50;99.90
5901;DHT22;2976;49.764;9.796;2023-06-22T03:20:04;18.50;99.90
5901;DHT22;2976;49.764;9.796;2023-06-22T03:22:40;18.50;99.90
5901;DHT22;2976;49.764;9.796;2023-06-22T03:25:10;18.40;99.90
5901;DHT22;2976;49.764;9.796;2023-06-22T03:27:39;18.50;99.90
5901;DHT22;2976;49.764;9.796;2023-06-22T03:30:06;18.50;99.90
5901;DHT22;2976;49.764;9.796;2023-06-22T03:32:32;18.50;99.90
5901;DHT22;2976;49.764;9.796;2023-06-22T03:34:57;18.40;99.90
5901;DHT22;2976;49.764;9.796;2023-06-22T03:37:25;18.40;99.90
5901;DHT22;2976;49.764;9.796;2023-06-22T03:39:51;18.40;99.90
5901;DHT22;2976;49.764;9.796;2023-06-22T03:42:17;18.40;99.90
5901;DHT22;2976;49.764;9.796;2023-06-22T03:44:42;18.40;99.90
5901;DHT22;2976;49.764;9.796;2023-06-22T03:47:08;18.40;99.90
5901;DHT22;2976;49.764;9.796;2023-06-22T03:49:34;18.40;99.90
5901;DHT22;2976;49.764;9.796;2023-06-22T03:52:01;18.40;99.90
5901;DHT22;2976;49.764;9.796;2023-06-22T03:54:28;18.50;99.90
5901;DHT22;2976;49.764;9.796;2023-06-22T03:56:54;18.60;99.90
5901;DHT22;2976;49.764;9.796;2023-06-22T03:59:19;18.70;99.90
5901;DHT22;2976;49.764;9.796;2023-06-22T04:01:45;18.80;99.90
5901;DHT22;2976;49.764;9.796;2023-06-22T04:04:11;18.90;99.90
5901;DHT22;2976;49.764;9.796;2023-06-22T04:06:38;19.00;99.90
5901;DHT22;2976;49.764;9.796;2023-06-22T04:09:03;19.00;99.90
5901;DHT22;2976;49.764;9.796;2023-06-22T04:11:29;19.10;99.90
5901;DHT22;2976;49.764;9.796;2023-06-22T04:13:54;19.10;99.90
5901;DHT22;2976;49.764;9.796;2023-06-22T04:16:20;19.10;99.90
5901;DHT22;2976;49.764;9.796;2023-06-22T04:18:46;19.20;99.90
5901;DHT22;2976;49.764;9.796;2023-06-22T04:21:12;19.50;99.90
5901;DHT22;2976;49.764;9.796;2023-06-22T04:23:38;19.90;99.90
5901;DHT22;2976;49.764;9.796;2023-06-22T04:26:03;20.30;99.90
5901;DHT22;2976;49.764;9.796;2023-06-22T04:28:29;20.70;99.90
5901;DHT22;2976;49.764;9.796;2023-06-22T04:30:54;20.90;99.90
5901;DHT22;2976;49.764;9.796;2023-06-22T04:33:23;20.90;99.90
5901;DHT22;2976;49.764;9.796;2023-06-22T04:35:49;20.70;99.90
5901;DHT22;2976;49.764;9.796;2023-06-22T04:38:14;20.70;99.90
5901;DHT22;2976;49.764;9.796;2023-06-22T04:40:40;20.90;99.90
5901;DHT22;2976;49.764;9.796;2023-06-22T04:43:06;21.00;99.90
5901;DHT22;2976;49.764;9.796;2023-06-22T04:45:32;21.40;99.90
5901;DHT22;2976;49.764;9.796;2023-06-22T04:47:58;21.40;99.90
5901;DHT22;2976;49.764;9.796;2023-06-22T04:50:24;21.30;99.90
5901;DHT22;2976;49.764;9.796;2023-06-22T04:52:50;21.20;99.90
5901;DHT22;2976;49.764;9.796;2023-06-22T04:55:17;21.20;99.90
5901;DHT22;2976;49.764;9.796;2023-06-22T04:57:44;21.30;99.90
5901;DHT22;2976;49.764;9.796;2023-06-22T05:00:15;21.70;99.90
5901;DHT22;2976;49.764;9.796;2023-06-22T05:02:43;22.30;99.90
5901;DHT22;2976;49.764;9.796;2023-06-22T05:05:09;22.50;99.90
5901;DHT22;2976;49.764;9.796;2023-06-22T05:07:39;23.00;99.90
5901;DHT22;2976;49.764;9.796;2023-06-22T05:10:09;23.20;99.90
5901;DHT22;2976;49.764;9.796;2023-06-22T05:12:36;23.50;99.90
5901;DHT22;2976;49.764;9.796;2023-06-22T05:15:02;23.90;99.90
5901;DHT22;2976;49.764;9.796;2023-06-22T05:17:27;24.30;99.90
5901;DHT22;2976;49.764;9.796;2023-06-22T05:19:53;24.40;99.90
5901;DHT22;2976;49.764;9.796;2023-06-22T05:22:20;25.20;99.90
5901;DHT22;2976;49.764;9.796;2023-06-22T05:24:46;25.60;99.90
5901;DHT22;2976;49.764;9.796;2023-06-22T05:27:12;25.80;99.90
5901;DHT22;2976;49.764;9.796;2023-06-22T05:29:37;25.70;99.90
5901;DHT22;2976;49.764;9.796;2023-06-22T05:32:03;25.80;99.90
5901;DHT22;2976;49.764;9.796;2023-06-22T05:34:29;25.60;99.90
5901;DHT22;2976;49.764;9.796;2023-06-22T05:36:55;25.60;99.90
5901;DHT22;2976;49.764;9.796;2023-06-22T05:39:21;25.50;99.90
5901;DHT22;2976;49.764;9.796;2023-06-22T05:41:46;25.30;99.90
5901;DHT22;2976;49.764;9.796;2023-06-22T05:44:12;25.40;99.90
5901;DHT22;2976;49.764;9.796;2023-06-22T05:46:41;25.60;99.90
5901;DHT22;2976;49.764;9.796;2023-06-22T05:49:10;25.50;99.90
5901;DHT22;2976;49.764;9.796;2023-06-22T05:51:36;26.00;99.90
5901;DHT22;2976;49.764;9.796;2023-06-22T05:54:02;26.50;99.90
5901;DHT22;2976;49.764;9.796;2023-06-22T05:56:27;26.50;99.90
5901;DHT22;2976;49.764;9.796;2023-06-22T05:58:53;26.80;99.90
5901;DHT22;2976;49.764;9.796;2023-06-22T06:01:18;26.30;99.90
5901;DHT22;2976;49.764;9.796;2023-06-22T06:03:44;26.00;99.90
5901;DHT22;2976;49.764;9.796;2023-06-22T06:06:09;26.10;99.90
5901;DHT22;2976;49.764;9.796;2023-06-22T06:08:39;26.30;99.90
5901;DHT22;2976;49.764;9.796;2023-06-22T06:11:05;26.30;99.90
5901;DHT22;2976;49.764;9.796;2023-06-22T06:13:30;26.30;99.90
5901;DHT22;2976;49.764;9.796;2023-06-22T06:15:56;26.40;99.90
5901;DHT22;2976;49.764;9.796;2023-06-22T06:18:22;26.60;99.90
5901;DHT22;2976;49.764;9.796;2023-06-22T06:20:48;26.60;99.90
5901;DHT22;2976;49.764;9.796;2023-06-22T06:23:13;26.30;99.90
5901;DHT22;2976;49.764;9.796;2023-06-22T06:25:39;26.50;99.90
5901;DHT22;2976;49.764;9.796;2023-06-22T06:28:05;26.20;99.90
5901;DHT22;2976;49.764;9.796;2023-06-22T06:30:30;26.60;99.90
5901;DHT22;2976;49.764;9.796;2023-06-22T06:32:56;27.10;99.90
5901;DHT22;2976;49.764;9.796;2023-06-22T06:35:22;26.60;99.90
5901;DHT22;2976;49.764;9.796;2023-06-22T06:37:49;26.50;99.90
5901;DHT22;2976;49.764;9.796;2023-06-22T06:40:16;26.90;99.90
5901;DHT22;2976;49.764;9.796;2023-06-22T06:42:45;27.80;99.90
5901;DHT22;2976;49.764;9.796;2023-06-22T06:45:21;27.80;99.90
5901;DHT22;2976;49.764;9.796;2023-06-22T06:47:51;27.90;99.90
5901;DHT22;2976;49.764;9.796;2023-06-22T06:50:18;27.70;99.90
5901;DHT22;2976;49.764;9.796;2023-06-22T06:52:44;27.50;99.90
5901;DHT22;2976;49.764;9.796;2023-06-22T06:55:09;27.60;99.90
5901;DHT22;2976;49.764;9.796;2023-06-22T06:57:38;28.00;99.90
5901;DHT22;2976;49.764;9.796;2023-06-22T07:00:08;28.20;99.90
5901;DHT22;2976;49.764;9.796;2023-06-22T07:02:46;28.30;99.90
5901;DHT22;2976;49.764;9.796;2023-06-22T07:05:13;27.80;99.90
5901;DHT22;2976;49.764;9.796;2023-06-22T07:07:39;28.20;99.90
5901;DHT22;2976;49.764;9.796;2023-06-22T07:10:06;28.40;99.90
5901;DHT22;2976;49.764;9.796;2023-06-22T07:12:31;28.50;99.90
5901;DHT22;2976;49.764;9.796;2023-06-22T07:15:09;28.90;99.90
5901;DHT22;2976;49.764;9.796;2023-06-22T07:17:37;29.00;99.90
5901;DHT22;2976;49.764;9.796;2023-06-22T07:20:03;29.10;99.90
5901;DHT22;2976;49.764;9.796;2023-06-22T07:22:36;29.10;99.90
5901;DHT22;2976;49.764;9.796;2023-06-22T07:25:02;29.30;99.90
5901;DHT22;2976;49.764;9.796;2023-06-22T07:27:38;29.60;99.90
5901;DHT22;2976;49.764;9.796;2023-06-22T07:30:05;29.40;99.90
5901;DHT22;2976;49.764;9.796;2023-06-22T07:32:32;28.10;99.90
5901;DHT22;2976;49.764;9.796;2023-06-22T07:34:57;28.30;99.90
5901;DHT22;2976;49.764;9.796;2023-06-22T07:37:23;28.80;99.90
5901;DHT22;2976;49.764;9.796;2023-06-22T07:39:48;28.80;99.90
5901;DHT22;2976;49.764;9.796;2023-06-22T07:42:15;28.30;99.90
5901;DHT22;2976;49.764;9.796;2023-06-22T07:44:44;28.60;99.90
5901;DHT22;2976;49.764;9.796;2023-06-22T07:47:09;28.80;99.90
5901;DHT22;2976;49.764;9.796;2023-06-22T07:49:35;28.70;99.90
5901;DHT22;2976;49.764;9.796;2023-06-22T07:52:00;28.40;99.90
5901;DHT22;2976;49.764;9.796;2023-06-22T07:54:27;28.50;99.90
5901;DHT22;2976;49.764;9.796;2023-06-22T07:56:52;28.90;99.90
5901;DHT22;2976;49.764;9.796;2023-06-22T07:59:18;29.20;99.90
5901;DHT22;2976;49.764;9.796;2023-06-22T08:01:43;29.30;99.90
5901;DHT22;2976;49.764;9.796;2023-06-22T08:04:09;29.40;99.90
5901;DHT22;2976;49.764;9.796;2023-06-22T08:06:34;30.00;99.90
5901;DHT22;2976;49.764;9.796;2023-06-22T08:09:00;29.70;99.90
5901;DHT22;2976;49.764;9.796;2023-06-22T08:11:26;29.60;99.90
5901;DHT22;2976;49.764;9.796;2023-06-22T08:13:52;29.00;99.90
5901;DHT22;2976;49.764;9.796;2023-06-22T08:16:17;29.30;99.90
5901;DHT22;2976;49.764;9.796;2023-06-22T08:18:43;29.20;99.90
5901;DHT22;2976;49.764;9.796;2023-06-22T08:21:09;28.90;99.90
5901;DHT22;2976;49.764;9.796;2023-06-22T08:23:34;29.00;99.90
5901;DHT22;2976;49.764;9.796;2023-06-22T08:26:00;29.00;99.90
5901;DHT22;2976;49.764;9.796;2023-06-22T08:28:26;29.10;99.90
5901;DHT22;2976;49.764;9.796;2023-06-22T08:30:51;29.50;99.90
5901;DHT22;2976;49.764;9.796;2023-06-22T08:33:17;29.50;99.90
5901;DHT22;2976;49.764;9.796;2023-06-22T08:35:43;29.10;99.90
5901;DHT22;2976;49.764;9.796;2023-06-22T08:38:09;28.90;99.90
5901;DHT22;2976;49.764;9.796;2023-06-22T08:40:34;28.80;99.90
5901;DHT22;2976;49.764;9.796;2023-06-22T08:43:00;28.80;99.90
5901;DHT22;2976;49.764;9.796;2023-06-22T08:45:25;29.30;99.90
5901;DHT22;2976;49.764;9.796;2023-06-22T08:47:51;28.90;99.90
5901;DHT22;2976;49.764;9.796;2023-06-22T08:50:16;29.00;99.90
5901;DHT22;2976;49.764;9.796;2023-06-22T08:52:42;29.10;99.90
5901;DHT22;2976;49.764;9.796;2023-06-22T08:55:08;29.10;99.90
5901;DHT22;2976;49.764;9.796;2023-06-22T08:57:34;29.40;99.90
5901;DHT22;2976;49.764;9.796;2023-06-22T09:00:03;29.70;99.90
5901;DHT22;2976;49.764;9.796;2023-06-22T09:02:30;29.30;99.90
5901;DHT22;2976;49.764;9.796;2023-06-22T09:04:57;29.70;99.90
5901;DHT22;2976;49.764;9.796;2023-06-22T09:07:23;29.90;99.90
5901;DHT22;2976;49.764;9.796;2023-06-22T09:09:50;30.00;99.90
5901;DHT22;2976;49.764;9.796;2023-06-22T09:12:16;30.30;96.20
5901;DHT22;2976;49.764;9.796;2023-06-22T09:14:41;30.40;98.80
5901;DHT22;2976;49.764;9.796;2023-06-22T09:17:07;30.40;99.50
5901;DHT22;2976;49.764;9.796;2023-06-22T09:19:33;30.80;94.80
5901;DHT22;2976;49.764;9.796;2023-06-22T09:21:58;31.10;93.90
5901;DHT22;2976;49.764;9.796;2023-06-22T09:24:25;31.60;90.70
5901;DHT22;2976;49.764;9.796;2023-06-22T09:26:50;31.20;94.80
5901;DHT22;2976;49.764;9.796;2023-06-22T09:29:16;31.50;91.20
5901;DHT22;2976;49.764;9.796;2023-06-22T09:31:42;31.50;90.20
5901;DHT22;2976;49.764;9.796;2023-06-22T09:34:08;31.50;90.20
5901;DHT22;2976;49.764;9.796;2023-06-22T09:36:33;31.50;85.10
5901;DHT22;2976;49.764;9.796;2023-06-22T09:38:59;31.00;91.10
5901;DHT22;2976;49.764;9.796;2023-06-22T09:41:26;31.30;90.80
5901;DHT22;2976;49.764;9.796;2023-06-22T09:43:52;31.90;87.00
5901;DHT22;2976;49.764;9.796;2023-06-22T09:46:18;32.40;81.20
5901;DHT22;2976;49.764;9.796;2023-06-22T09:48:46;32.60;78.30
5901;DHT22;2976;49.764;9.796;2023-06-22T09:51:12;32.60;74.70
5901;DHT22;2976;49.764;9.796;2023-06-22T09:53:37;32.70;72.80
5901;DHT22;2976;49.764;9.796;2023-06-22T09:56:03;32.40;73.10
5901;DHT22;2976;49.764;9.796;2023-06-22T09:58:29;32.70;74.20
5901;DHT22;2976;49.764;9.796;2023-06-22T10:00:54;32.90;70.00
5901;DHT22;2976;49.764;9.796;2023-06-22T10:03:20;32.50;74.00
5901;DHT22;2976;49.764;9.796;2023-06-22T10:05:46;31.70;77.00
5901;DHT22;2976;49.764;9.796;2023-06-22T10:08:12;31.60;79.60
5901;DHT22;2976;49.764;9.796;2023-06-22T10:10:37;31.30;75.20
5901;DHT22;2976;49.764;9.796;2023-06-22T10:13:10;31.10;79.30
5901;DHT22;2976;49.764;9.796;2023-06-22T10:15:36;31.70;78.70
5901;DHT22;2976;49.764;9.796;2023-06-22T10:18:02;32.10;76.10
5901;DHT22;2976;49.764;9.796;2023-06-22T10:20:28;32.00;78.50
5901;DHT22;2976;49.764;9.796;2023-06-22T10:22:53;32.10;76.70
5901;DHT22;2976;49.764;9.796;2023-06-22T10:25:19;31.90;75.70
5901;DHT22;2976;49.764;9.796;2023-06-22T10:27:44;31.30;78.30
5901;DHT22;2976;49.764;9.796;2023-06-22T10:30:11;31.20;80.50
5901;DHT22;2976;49.764;9.796;2023-06-22T10:32:41;31.30;79.00
5901;DHT22;2976;49.764;9.796;2023-06-22T10:35:08;31.40;78.00
5901;DHT22;2976;49.764;9.796;2023-06-22T10:37:33;31.60;77.90
5901;DHT22;2976;49.764;9.796;2023-06-22T10:39:59;31.50;74.00
5901;DHT22;2976;49.764;9.796;2023-06-22T10:42:24;31.80;73.60
5901;DHT22;2976;49.764;9.796;2023-06-22T10:44:50;32.30;72.50
5901;DHT22;2976;49.764;9.796;2023-06-22T10:47:15;32.90;70.50
5901;DHT22;2976;49.764;9.796;2023-06-22T10:49:41;33.50;66.40
5901;DHT22;2976;49.764;9.796;2023-06-22T10:52:08;33.70;64.40
5901;DHT22;2976;49.764;9.796;2023-06-22T10:54:34;33.50;63.90
5901;DHT22;2976;49.764;9.796;2023-06-22T10:57:01;33.00;67.10
5901;DHT22;2976;49.764;9.796;2023-06-22T10:59:26;33.00;68.00
5901;DHT22;2976;49.764;9.796;2023-06-22T11:01:54;33.00;65.80
5901;DHT22;2976;49.764;9.796;2023-06-22T11:04:20;32.90;67.60
5901;DHT22;2976;49.764;9.796;2023-06-22T11:06:46;32.90;70.10
5901;DHT22;2976;49.764;9.796;2023-06-22T11:09:11;32.90;68.20
5901;DHT22;2976;49.764;9.796;2023-06-22T11:11:37;33.00;65.00
5901;DHT22;2976;49.764;9.796;2023-06-22T11:14:02;33.10;65.50
5901;DHT22;2976;49.764;9.796;2023-06-22T11:16:28;32.90;65.60
5901;DHT22;2976;49.764;9.796;2023-06-22T11:18:54;33.00;65.00
5901;DHT22;2976;49.764;9.796;2023-06-22T11:21:19;32.80;64.60
5901;DHT22;2976;49.764;9.796;2023-06-22T11:23:45;32.60;64.50
5901;DHT22;2976;49.764;9.796;2023-06-22T11:26:10;33.20;64.30
5901;DHT22;2976;49.764;9.796;2023-06-22T11:28:36;33.50;63.70
5901;DHT22;2976;49.764;9.796;2023-06-22T11:31:01;33.30;60.80
5901;DHT22;2976;49.764;9.796;2023-06-22T11:33:27;33.00;64.10
5901;DHT22;2976;49.764;9.796;2023-06-22T11:35:53;33.20;64.90
5901;DHT22;2976;49.764;9.796;2023-06-22T11:38:18;33.20;61.60
5901;DHT22;2976;49.764;9.796;2023-06-22T11:40:44;33.60;63.00
5901;DHT22;2976;49.764;9.796;2023-06-22T11:43:10;33.80;60.60
5901;DHT22;2976;49.764;9.796;2023-06-22T11:45:35;33.60;61.90
5901;DHT22;2976;49.764;9.796;2023-06-22T11:48:01;33.50;61.10
5901;DHT22;2976;49.764;9.796;2023-06-22T11:50:26;33.00;61.90
5901;DHT22;2976;49.764;9.796;2023-06-22T11:52:54;32.90;62.90
5901;DHT22;2976;49.764;9.796;2023-06-22T11:55:19;32.90;62.70
5901;DHT22;2976;49.764;9.796;2023-06-22T11:57:57;33.00;63.50
5901;DHT22;2976;49.764;9.796;2023-06-22T12:00:26;33.20;62.50
5901;DHT22;2976;49.764;9.796;2023-06-22T12:02:52;33.40;61.50
5901;DHT22;2976;49.764;9.796;2023-06-22T12:05:20;33.70;61.40
5901;DHT22;2976;49.764;9.796;2023-06-22T12:07:50;33.80;61.20
5901;DHT22;2976;49.764;9.796;2023-06-22T12:10:16;33.80;60.80
5901;DHT22;2976;49.764;9.796;2023-06-22T12:12:42;33.80;60.70
5901;DHT22;2976;49.764;9.796;2023-06-22T12:15:09;33.90;58.90
5901;DHT22;2976;49.764;9.796;2023-06-22T12:17:35;33.50;60.40
5901;DHT22;2976;49.764;9.796;2023-06-22T12:20:01;33.50;61.00
5901;DHT22;2976;49.764;9.796;2023-06-22T12:22:30;33.50;61.30
5901;DHT22;2976;49.764;9.796;2023-06-22T12:24:55;33.40;62.30
5901;DHT22;2976;49.764;9.796;2023-06-22T12:27:21;33.40;61.90
5901;DHT22;2976;49.764;9.796;2023-06-22T12:29:47;33.20;62.80
5901;DHT22;2976;49.764;9.796;2023-06-22T12:32:13;33.60;61.50
5901;DHT22;2976;49.764;9.796;2023-06-22T12:34:39;33.50;62.60
5901;DHT22;2976;49.764;9.796;2023-06-22T12:37:05;33.90;60.30
5901;DHT22;2976;49.764;9.796;2023-06-22T12:39:33;34.50;58.90
5901;DHT22;2976;49.764;9.796;2023-06-22T12:41:59;34.70;57.60
5901;DHT22;2976;49.764;9.796;2023-06-22T12:44:25;34.80;56.30
5901;DHT22;2976;49.764;9.796;2023-06-22T12:46:50;34.80;56.40
5901;DHT22;2976;49.764;9.796;2023-06-22T12:49:16;34.60;55.90
5901;DHT22;2976;49.764;9.796;2023-06-22T12:51:42;34.40;56.60
5901;DHT22;2976;49.764;9.796;2023-06-22T12:54:08;33.80;58.00
5901;DHT22;2976;49.764;9.796;2023-06-22T12:56:34;33.40;59.20
5901;DHT22;2976;49.764;9.796;2023-06-22T12:59:00;33.10;60.10
5901;DHT22;2976;49.764;9.796;2023-06-22T13:01:28;32.70;61.70
5901;DHT22;2976;49.764;9.796;2023-06-22T13:03:55;32.70;64.30
5901;DHT22;2976;49.764;9.796;2023-06-22T13:06:21;32.60;64.10
5901;DHT22;2976;49.764;9.796;2023-06-22T13:08:46;32.30;64.50
5901;DHT22;2976;49.764;9.796;2023-06-22T13:11:12;32.10;65.30
5901;DHT22;2976;49.764;9.796;2023-06-22T13:13:38;32.00;68.00
5901;DHT22;2976;49.764;9.796;2023-06-22T13:16:04;31.90;69.70
5901;DHT22;2976;49.764;9.796;2023-06-22T13:18:29;31.90;68.70
5901;DHT22;2976;49.764;9.796;2023-06-22T13:20:55;32.00;69.50
5901;DHT22;2976;49.764;9.796;2023-06-22T13:23:21;32.20;67.30
5901;DHT22;2976;49.764;9.796;2023-06-22T13:25:47;32.30;67.20
5901;DHT22;2976;49.764;9.796;2023-06-22T13:28:12;32.40;68.00
5901;DHT22;2976;49.764;9.796;2023-06-22T13:30:40;32.30;69.60
5901;DHT22;2976;49.764;9.796;2023-06-22T13:33:06;32.20;71.10
5901;DHT22;2976;49.764;9.796;2023-06-22T13:35:31;32.20;70.80
5901;DHT22;2976;49.764;9.796;2023-06-22T13:37:57;32.20;71.10
5901;DHT22;2976;49.764;9.796;2023-06-22T13:40:23;32.20;70.90
5901;DHT22;2976;49.764;9.796;2023-06-22T13:42:48;32.40;71.20
5901;DHT22;2976;49.764;9.796;2023-06-22T13:45:14;32.60;70.50
5901;DHT22;2976;49.764;9.796;2023-06-22T13:47:42;32.80;69.50
5901;DHT22;2976;49.764;9.796;2023-06-22T13:50:08;32.90;68.40
5901;DHT22;2976;49.764;9.796;2023-06-22T13:52:34;33.00;67.70
5901;DHT22;2976;49.764;9.796;2023-06-22T13:54:59;33.20;67.20
5901;DHT22;2976;49.764;9.796;2023-06-22T13:57:25;33.20;67.00
5901;DHT22;2976;49.764;9.796;2023-06-22T13:59:51;33.30;68.50
5901;DHT22;2976;49.764;9.796;2023-06-22T14:02:16;33.30;70.20
5901;DHT22;2976;49.764;9.796;2023-06-22T14:04:42;33.50;71.30
5901;DHT22;2976;49.764;9.796;2023-06-22T14:07:07;33.50;70.40
5901;DHT22;2976;49.764;9.796;2023-06-22T14:09:33;33.50;70.00
5901;DHT22;2976;49.764;9.796;2023-06-22T14:12:03;33.20;69.10
5901;DHT22;2976;49.764;9.796;2023-06-22T14:14:29;33.00;70.40
5901;DHT22;2976;49.764;9.796;2023-06-22T14:16:55;32.90;70.70
5901;DHT22;2976;49.764;9.796;2023-06-22T14:19:20;32.70;71.60
5901;DHT22;2976;49.764;9.796;2023-06-22T14:21:46;32.50;74.40
5901;DHT22;2976;49.764;9.796;2023-06-22T14:24:12;32.30;76.00
5901;DHT22;2976;49.764;9.796;2023-06-22T14:26:37;32.20;78.30
5901;DHT22;2976;49.764;9.796;2023-06-22T14:29:03;32.10;77.20
5901;DHT22;2976;49.764;9.796;2023-06-22T14:31:29;32.40;78.20
5901;DHT22;2976;49.764;9.796;2023-06-22T14:33:54;32.50;74.00
5901;DHT22;2976;49.764;9.796;2023-06-22T14:36:20;32.40;74.30
5901;DHT22;2976;49.764;9.796;2023-06-22T14:38:46;32.40;74.80
5901;DHT22;2976;49.764;9.796;2023-06-22T14:41:11;32.20;75.30
5901;DHT22;2976;49.764;9.796;2023-06-22T14:43:37;32.40;75.10
5901;DHT22;2976;49.764;9.796;2023-06-22T14:46:02;32.70;74.50
5901;DHT22;2976;49.764;9.796;2023-06-22T14:48:29;33.10;71.60
5901;DHT22;2976;49.764;9.796;2023-06-22T14:50:54;33.20;71.70
5901;DHT22;2976;49.764;9.796;2023-06-22T14:53:20;33.60;68.90
5901;DHT22;2976;49.764;9.796;2023-06-22T14:55:45;34.00;69.40
5901;DHT22;2976;49.764;9.796;2023-06-22T14:58:11;34.50;66.90
5901;DHT22;2976;49.764;9.796;2023-06-22T15:00:37;34.70;61.00
5901;DHT22;2976;49.764;9.796;2023-06-22T15:03:04;34.80;60.90
5901;DHT22;2976;49.764;9.796;2023-06-22T15:05:32;34.90;60.90
5901;DHT22;2976;49.764;9.796;2023-06-22T15:07:57;35.00;60.10
5901;DHT22;2976;49.764;9.796;2023-06-22T15:10:24;35.00;59.50
5901;DHT22;2976;49.764;9.796;2023-06-22T15:12:50;34.90;58.80
5901;DHT22;2976;49.764;9.796;2023-06-22T15:15:15;34.80;58.60
5901;DHT22;2976;49.764;9.796;2023-06-22T15:17:41;34.70;56.50
5901;DHT22;2976;49.764;9.796;2023-06-22T15:20:07;34.50;57.50
5901;DHT22;2976;49.764;9.796;2023-06-22T15:22:32;34.40;59.10
5901;DHT22;2976;49.764;9.796;2023-06-22T15:24:58;34.20;58.40
5901;DHT22;2976;49.764;9.796;2023-06-22T15:27:24;34.00;57.20
5901;DHT22;2976;49.764;9.796;2023-06-22T15:29:49;33.80;56.90
5901;DHT22;2976;49.764;9.796;2023-06-22T15:32:15;33.50;56.60
5901;DHT22;2976;49.764;9.796;2023-06-22T15:34:41;33.30;53.50
5901;DHT22;2976;49.764;9.796;2023-06-22T15:37:06;33.20;55.40
5901;DHT22;2976;49.764;9.796;2023-06-22T15:39:32;33.10;55.60
5901;DHT22;2976;49.764;9.796;2023-06-22T15:41:58;33.10;52.70
5901;DHT22;2976;49.764;9.796;2023-06-22T15:44:23;33.10;54.60
5901;DHT22;2976;49.764;9.796;2023-06-22T15:46:49;33.10;55.60
5901;DHT22;2976;49.764;9.796;2023-06-22T15:49:16;33.10;55.80
5901;DHT22;2976;49.764;9.796;2023-06-22T15:51:41;33.00;56.90
5901;DHT22;2976;49.764;9.796;2023-06-22T15:54:07;32.90;57.10
5901;DHT22;2976;49.764;9.796;2023-06-22T15:56:32;32.70;58.30
5901;DHT22;2976;49.764;9.796;2023-06-22T15:58:58;32.50;56.90
5901;DHT22;2976;49.764;9.796;2023-06-22T16:01:24;32.20;56.70
5901;DHT22;2976;49.764;9.796;2023-06-22T16:03:50;32.00;56.30